TimeCDT,TemperatureF,Dew PointF,Humidity,Sea Level PressureIn,VisibilityMPH,Wind Direction,Wind SpeedMPH,Gust SpeedMPH,PrecipitationIn,Events,Conditions,WindDirDegrees,DateUTC
12:15 AM,66.2,53.6,64,30.04,10.0,Calm,Calm,-,N/A,,Clear,0,2013-07-13 05:15:00
12:35 AM,66.2,53.6,64,30.04,10.0,Calm,Calm,-,N/A,,Clear,0,2013-07-13 05:35:00
12:55 AM,64.4,53.6,68,30.03,10.0,Calm,Calm,-,N/A,,Clear,0,2013-07-13 05:55:00
1:15 AM,64.4,53.6,68,30.03,10.0,Calm,Calm,-,N/A,,Clear,0,2013-07-13 06:15:00
1:36 AM,64.4,53.6,68,30.03,10.0,Calm,Calm,-,N/A,,Clear,0,2013-07-13 06:36:00
1:55 AM,64.4,51.8,64,30.03,10.0,Calm,Calm,-,N/A,,Clear,0,2013-07-13 06:55:00
2:15 AM,62.6,51.8,68,30.03,10.0,Calm,Calm,-,N/A,,Clear,0,2013-07-13 07:15:00
2:35 AM,64.4,53.6,68,30.03,10.0,Calm,Calm,-,N/A,,Clear,0,2013-07-13 07:35:00
2:55 AM,64.4,53.6,68,30.03,10.0,Calm,Calm,-,N/A,,Clear,0,2013-07-13 07:55:00
3:15 AM,62.6,51.8,68,30.03,10.0,Calm,Calm,-,N/A,,Clear,0,2013-07-13 08:15:00
3:35 AM,62.6,51.8,68,30.03,10.0,Calm,Calm,-,N/A,,Clear,0,2013-07-13 08:35:00
3:55 AM,62.6,51.8,68,30.03,10.0,NNE,3.5,-,N/A,,Clear,30,2013-07-13 08:55:00
4:15 AM,64.4,51.8,64,30.03,10.0,NNE,3.5,-,N/A,,Clear,30,2013-07-13 09:15:00
4:35 AM,62.6,51.8,68,30.04,10.0,Calm,Calm,-,N/A,,Clear,0,2013-07-13 09:35:00
4:55 AM,62.6,51.8,68,30.04,10.0,NE,3.5,-,N/A,,Clear,50,2013-07-13 09:55:00
5:15 AM,62.6,51.8,68,30.04,10.0,NE,4.6,-,N/A,,Clear,50,2013-07-13 10:15:00
5:35 AM,62.6,51.8,68,30.03,10.0,NE,3.5,-,N/A,,Clear,50,2013-07-13 10:35:00
5:55 AM,62.6,51.8,68,30.04,10.0,NE,4.6,-,N/A,,Clear,50,2013-07-13 10:55:00
6:15 AM,62.6,51.8,68,30.04,10.0,NE,4.6,-,N/A,,Clear,50,2013-07-13 11:15:00
6:35 AM,64.4,53.6,68,30.04,10.0,NE,4.6,-,N/A,,Clear,50,2013-07-13 11:35:00
6:55 AM,66.2,53.6,64,30.04,10.0,NE,5.8,-,N/A,,Clear,40,2013-07-13 11:55:00
7:35 AM,69.8,55.4,60,30.05,9.0,NE,5.8,-,N/A,,Clear,50,2013-07-13 12:35:00
7:55 AM,68.0,53.6,60,30.05,10.0,ENE,4.6,-,N/A,,Clear,70,2013-07-13 12:55:00
8:15 AM,66.2,53.6,64,30.05,10.0,ENE,5.8,-,N/A,,Clear,60,2013-07-13 13:15:00
8:35 AM,69.8,55.4,60,30.05,10.0,ENE,4.6,-,N/A,,Clear,60,2013-07-13 13:35:00
8:55 AM,71.6,55.4,57,30.05,10.0,NE,3.5,-,N/A,,Clear,40,2013-07-13 13:55:00
9:15 AM,73.4,55.4,53,30.05,10.0,NNE,3.5,-,N/A,,Clear,30,2013-07-13 14:15:00
9:36 AM,73.4,55.4,53,30.05,10.0,NNE,4.6,-,N/A,,Clear,20,2013-07-13 14:36:00
9:55 AM,77.0,55.4,47,30.05,10.0,NE,5.8,-,N/A,,Clear,40,2013-07-13 14:55:00
10:15 AM,78.8,55.4,44,30.05,10.0,NNE,8.1,-,N/A,,Clear,20,2013-07-13 15:15:00
10:35 AM,78.8,55.4,44,30.06,10.0,ENE,8.1,-,N/A,,Clear,70,2013-07-13 15:35:00
10:55 AM,80.6,55.4,42,30.06,10.0,NNE,12.7,-,N/A,,Partly Cloudy,30,2013-07-13 15:55:00
11:15 AM,80.6,55.4,42,30.06,10.0,NNE,9.2,-,N/A,,Partly Cloudy,30,2013-07-13 16:15:00
11:36 AM,82.4,55.4,39,30.05,10.0,NE,11.5,-,N/A,,Partly Cloudy,40,2013-07-13 16:36:00
11:55 AM,82.4,55.4,39,30.05,10.0,NE,8.1,-,N/A,,Partly Cloudy,40,2013-07-13 16:55:00
12:15 PM,82.4,55.4,39,30.05,10.0,ENE,9.2,17.3,N/A,,Mostly Cloudy,70,2013-07-13 17:15:00
12:35 PM,82.4,55.4,39,30.05,10.0,ENE,9.2,-,N/A,,Mostly Cloudy,60,2013-07-13 17:35:00
12:55 PM,82.4,55.4,39,30.04,10.0,ENE,11.5,16.1,N/A,,Scattered Clouds,70,2013-07-13 17:55:00
1:15 PM,82.4,55.4,39,30.03,10.0,NE,11.5,-,N/A,,Partly Cloudy,40,2013-07-13 18:15:00
1:35 PM,84.2,55.4,37,30.03,10.0,ENE,6.9,-,N/A,,Scattered Clouds,70,2013-07-13 18:35:00
1:55 PM,84.2,55.4,37,30.03,10.0,NNE,11.5,16.1,N/A,,Scattered Clouds,30,2013-07-13 18:55:00
2:15 PM,84.2,55.4,37,30.02,10.0,NE,10.4,-,N/A,,Clear,40,2013-07-13 19:15:00
2:35 PM,84.2,55.4,37,30.01,10.0,East,11.5,-,N/A,,Partly Cloudy,80,2013-07-13 19:35:00
2:56 PM,84.2,57.2,40,30.01,10.0,East,6.9,-,N/A,,Clear,90,2013-07-13 19:56:00
3:15 PM,82.4,55.4,39,30.00,10.0,NE,9.2,-,N/A,,Clear,40,2013-07-13 20:15:00
3:35 PM,82.4,57.2,42,30.00,10.0,NE,12.7,16.1,N/A,,Clear,50,2013-07-13 20:35:00
3:55 PM,84.2,57.2,40,29.99,10.0,ENE,9.2,-,N/A,,Partly Cloudy,60,2013-07-13 20:55:00
4:15 PM,82.4,57.2,42,29.99,10.0,NE,10.4,-,N/A,,Scattered Clouds,50,2013-07-13 21:15:00
4:35 PM,82.4,55.4,39,29.99,10.0,NNE,8.1,-,N/A,,Partly Cloudy,30,2013-07-13 21:35:00
4:56 PM,82.4,55.4,39,29.99,10.0,NNE,6.9,-,N/A,,Clear,20,2013-07-13 21:56:00
5:15 PM,82.4,55.4,39,29.99,10.0,NE,8.1,-,N/A,,Clear,40,2013-07-13 22:15:00
5:35 PM,82.4,55.4,39,30.00,10.0,NE,4.6,-,N/A,,Scattered Clouds,40,2013-07-13 22:35:00
5:55 PM,82.4,55.4,39,29.99,9.0,ENE,6.9,-,N/A,,Overcast,70,2013-07-13 22:55:00
6:15 PM,82.4,55.4,39,29.99,10.0,NE,6.9,-,N/A,,Scattered Clouds,50,2013-07-13 23:15:00
6:35 PM,82.4,55.4,39,29.99,10.0,NNE,6.9,-,N/A,,Clear,30,2013-07-13 23:35:00
6:55 PM,82.4,55.4,39,29.99,10.0,ENE,6.9,-,N/A,,Clear,60,2013-07-13 23:55:00
7:15 PM,80.6,55.4,42,30.00,10.0,NE,5.8,-,N/A,,Clear,50,2013-07-14 00:15:00
7:55 PM,78.8,55.4,44,30.01,10.0,NE,4.6,-,N/A,,Clear,50,2013-07-14 00:55:00
8:15 PM,75.2,55.4,50,30.01,10.0,Calm,Calm,-,N/A,,Clear,0,2013-07-14 01:15:00
8:35 PM,73.4,55.4,53,30.01,10.0,Calm,Calm,-,N/A,,Clear,0,2013-07-14 01:35:00
8:55 PM,71.6,55.4,57,30.01,10.0,Calm,Calm,-,N/A,,Clear,0,2013-07-14 01:55:00
9:16 PM,73.4,55.4,53,30.01,10.0,ENE,3.5,-,N/A,,Clear,70,2013-07-14 02:16:00
9:35 PM,73.4,55.4,53,30.01,10.0,Calm,Calm,-,N/A,,Clear,0,2013-07-14 02:35:00
9:55 PM,71.6,55.4,57,30.01,10.0,East,3.5,-,N/A,,Clear,90,2013-07-14 02:55:00
10:15 PM,71.6,55.4,57,30.02,10.0,Calm,Calm,-,N/A,,Clear,0,2013-07-14 03:15:00
10:35 PM,69.8,55.4,60,30.02,10.0,ENE,4.6,-,N/A,,Clear,60,2013-07-14 03:35:00
10:55 PM,69.8,55.4,60,30.03,10.0,ENE,3.5,-,N/A,,Clear,60,2013-07-14 03:55:00
11:15 PM,69.8,55.4,60,30.02,10.0,NE,3.5,-,N/A,,Clear,50,2013-07-14 04:15:00
11:35 PM,69.8,55.4,60,30.03,10.0,ENE,3.5,-,N/A,,Clear,60,2013-07-14 04:35:00
11:55 PM,69.8,55.4,60,30.03,10.0,ENE,3.5,-,N/A,,Clear,70,2013-07-14 04:55:00